createdAt,value
2023-12-21T00:02:10.266Z,16.40
2023-12-21T00:04:36.734Z,22.90
2023-12-21T00:07:03.312Z,18.40
2023-12-21T00:09:29.920Z,22.73
2023-12-21T00:11:57.103Z,23.57
2023-12-21T00:14:25.017Z,20.27
2023-12-21T00:16:51.443Z,26.80
2023-12-21T00:19:18.109Z,17.83
2023-12-21T00:21:44.615Z,25.43
2023-12-21T00:24:11.024Z,24.33
2023-12-21T00:26:37.533Z,22.90
2023-12-21T00:29:03.947Z,20.40
2023-12-21T00:31:30.505Z,25.33
2023-12-21T00:33:57.086Z,26.10
2023-12-21T00:36:23.600Z,27.47
2023-12-21T00:38:49.966Z,16.50
2023-12-21T00:41:16.372Z,26.63
2023-12-21T00:43:42.940Z,24.77
2023-12-21T00:46:09.378Z,17.33
2023-12-21T00:48:35.934Z,26.77
2023-12-21T00:51:02.487Z,19.17
2023-12-21T00:53:28.903Z,19.90
2023-12-21T00:55:55.290Z,18.30
2023-12-21T00:58:21.855Z,20.60
2023-12-21T01:00:48.353Z,15.80
2023-12-21T01:03:14.798Z,21.27
2023-12-21T01:05:41.526Z,12.53
2023-12-21T01:08:08.270Z,10.93
2023-12-21T01:10:34.802Z,15.97
2023-12-21T01:13:01.644Z,11.60
2023-12-21T01:15:28.062Z,14.07
2023-12-21T01:17:54.641Z,16.30
2023-12-21T01:20:21.200Z,19.67
2023-12-21T01:22:47.617Z,12.23
2023-12-21T01:25:14.137Z,12.90
2023-12-21T01:27:40.513Z,13.63
2023-12-21T01:30:07.913Z,13.27
2023-12-21T01:32:34.400Z,16.53
2023-12-21T01:35:01.228Z,19.73
2023-12-21T01:37:27.805Z,25.73
2023-12-21T01:39:54.514Z,16.17
2023-12-21T01:42:21.063Z,22.27
2023-12-21T01:44:47.441Z,21.03
2023-12-21T01:47:13.937Z,12.57
2023-12-21T01:49:42.779Z,22.00
2023-12-21T01:52:10.313Z,17.93
2023-12-21T01:54:37.507Z,20.07
2023-12-21T01:57:04.132Z,29.33
2023-12-21T01:59:31.180Z,24.67
2023-12-21T02:01:57.683Z,21.57
2023-12-21T02:04:25.564Z,25.70
2023-12-21T02:06:52.080Z,21.60
2023-12-21T02:09:18.570Z,14.83
2023-12-21T02:11:47.208Z,17.70
2023-12-21T02:14:13.624Z,20.07
2023-12-21T02:16:48.140Z,18.57
2023-12-21T02:19:15.094Z,14.77
2023-12-21T02:21:43.786Z,18.07
2023-12-21T02:24:15.240Z,15.40
2023-12-21T02:26:43.087Z,19.77
2023-12-21T02:29:09.777Z,14.53
2023-12-21T02:31:37.385Z,23.77
2023-12-21T02:34:06.899Z,22.97
2023-12-21T02:36:34.088Z,22.90
2023-12-21T02:39:00.625Z,23.33
2023-12-21T02:41:27.029Z,23.87
2023-12-21T02:43:53.481Z,24.53
2023-12-21T02:46:20.986Z,22.20
2023-12-21T02:48:47.519Z,20.33
2023-12-21T02:51:14.008Z,16.73
2023-12-21T02:53:41.076Z,20.37
2023-12-21T02:56:07.624Z,19.90
2023-12-21T02:58:34.263Z,18.83
2023-12-21T03:01:02.324Z,24.60
2023-12-21T03:03:28.858Z,19.13
2023-12-21T03:05:55.323Z,24.07
2023-12-21T03:08:24.066Z,26.43
2023-12-21T03:10:50.917Z,21.27
2023-12-21T03:13:17.407Z,24.67
2023-12-21T03:15:43.889Z,19.33
2023-12-21T03:18:11.496Z,22.23
2023-12-21T03:20:37.911Z,22.47
2023-12-21T03:23:04.459Z,27.40
2023-12-21T03:25:31.304Z,18.70
2023-12-21T03:27:57.915Z,18.70
2023-12-21T03:30:24.319Z,17.70
2023-12-21T03:32:50.970Z,22.00
2023-12-21T03:35:17.614Z,22.37
2023-12-21T03:37:44.034Z,17.10
2023-12-21T03:40:10.747Z,18.17
2023-12-21T03:42:37.198Z,17.93
2023-12-21T03:45:04.308Z,17.80
2023-12-21T03:47:30.660Z,21.23
2023-12-21T03:49:57.179Z,20.53
2023-12-21T03:52:23.745Z,15.07
2023-12-21T03:54:50.170Z,20.03
2023-12-21T03:57:16.623Z,22.67
2023-12-21T03:59:43.060Z,15.83
2023-12-21T04:02:09.456Z,19.40
2023-12-21T04:04:37.067Z,20.83
2023-12-21T04:07:03.629Z,18.77
2023-12-21T04:09:30.075Z,17.67
2023-12-21T04:11:56.540Z,11.90
2023-12-21T04:14:22.937Z,21.47
2023-12-21T04:16:49.452Z,19.13
2023-12-21T04:19:15.913Z,16.53
2023-12-21T04:21:43.032Z,12.17
2023-12-21T04:24:09.477Z,15.27
2023-12-21T04:26:35.909Z,9.17
2023-12-21T04:29:02.384Z,12.10
2023-12-21T04:31:28.771Z,12.37
2023-12-21T04:33:55.416Z,10.73
2023-12-21T04:36:25.451Z,14.53
2023-12-21T04:38:53.664Z,6.10
2023-12-21T04:41:21.220Z,6.87
2023-12-21T04:43:47.835Z,5.20
2023-12-21T04:46:14.287Z,4.93
2023-12-21T04:48:40.811Z,9.70
2023-12-21T04:51:07.290Z,6.67
2023-12-21T04:53:33.723Z,3.53
2023-12-21T04:56:04.039Z,5.70
2023-12-21T04:58:30.430Z,3.13
2023-12-21T05:00:56.859Z,5.33
2023-12-21T05:03:23.326Z,3.47
2023-12-21T05:05:50.444Z,2.70
2023-12-21T05:08:16.904Z,2.57
2023-12-21T05:10:43.388Z,4.30
2023-12-21T05:13:09.883Z,3.10
2023-12-21T05:15:36.375Z,3.00
2023-12-21T05:18:02.930Z,3.27
2023-12-21T05:20:30.246Z,2.40
2023-12-21T05:23:00.331Z,2.70
2023-12-21T05:25:27.709Z,2.50
2023-12-21T05:27:54.590Z,2.60
2023-12-21T05:30:21.581Z,1.77
2023-12-21T05:32:48.362Z,2.27
2023-12-21T05:35:15.193Z,4.53
2023-12-21T05:37:41.980Z,2.30
2023-12-21T05:40:10.931Z,2.00
2023-12-21T05:42:37.400Z,1.30
2023-12-21T05:45:04.125Z,3.53
2023-12-21T05:47:32.801Z,3.33
2023-12-21T05:49:59.728Z,1.43
2023-12-21T05:52:26.902Z,1.50
2023-12-21T05:54:53.516Z,1.43
2023-12-21T05:57:19.983Z,1.77
2023-12-21T05:59:46.471Z,2.00
2023-12-21T06:02:13.042Z,2.30
2023-12-21T06:04:39.570Z,1.97
2023-12-21T06:07:06.138Z,1.67
2023-12-21T06:09:32.598Z,1.17
2023-12-21T06:11:58.998Z,1.90
2023-12-21T06:14:25.440Z,2.63
2023-12-21T06:16:51.809Z,1.00
2023-12-21T06:19:18.368Z,1.70
2023-12-21T06:21:44.969Z,1.20
2023-12-21T06:24:11.405Z,1.60
2023-12-21T06:26:41.651Z,0.93
2023-12-21T06:29:08.479Z,0.87
2023-12-21T06:31:36.386Z,1.27
2023-12-21T06:34:03.411Z,1.57
2023-12-21T06:36:30.307Z,0.93
2023-12-21T06:38:56.680Z,1.17
2023-12-21T06:41:23.204Z,1.27
2023-12-21T06:43:49.906Z,1.03
2023-12-21T06:46:16.759Z,1.50
2023-12-21T06:48:43.456Z,3.33
2023-12-21T06:51:10.012Z,1.83
2023-12-21T06:53:36.425Z,3.33
2023-12-21T06:56:17.694Z,2.97
2023-12-21T06:58:49.475Z,2.20
2023-12-21T07:01:15.977Z,1.53
2023-12-21T07:03:42.671Z,1.67
2023-12-21T07:06:12.238Z,1.20
2023-12-21T07:08:38.734Z,1.83
2023-12-21T07:11:05.213Z,1.60
2023-12-21T07:13:31.899Z,1.00
2023-12-21T07:15:58.550Z,1.00
2023-12-21T07:18:25.111Z,1.20
2023-12-21T07:20:51.618Z,1.03
2023-12-21T07:23:18.198Z,1.67
2023-12-21T07:25:44.764Z,1.67
2023-12-21T07:28:11.266Z,1.67
2023-12-21T07:30:37.733Z,2.87
2023-12-21T07:33:06.413Z,2.17
2023-12-21T07:35:33.112Z,1.80
2023-12-21T07:37:59.461Z,1.50
2023-12-21T07:40:25.952Z,1.13
2023-12-21T07:42:52.480Z,1.53
2023-12-21T07:45:18.963Z,2.20
2023-12-21T07:47:45.397Z,0.90
2023-12-21T07:50:11.768Z,1.27
2023-12-21T07:52:39.207Z,0.70
2023-12-21T07:55:06.646Z,0.90
2023-12-21T07:57:33.487Z,1.80
2023-12-21T08:00:00.262Z,0.80
2023-12-21T08:02:26.952Z,2.00
2023-12-21T08:04:53.513Z,1.13
2023-12-21T08:07:19.949Z,1.00
2023-12-21T08:09:46.373Z,1.03
2023-12-21T08:12:15.540Z,0.43
2023-12-21T08:14:42.269Z,0.23
2023-12-21T08:17:11.358Z,0.80
2023-12-21T08:19:38.602Z,0.50
2023-12-21T08:22:05.957Z,1.23
2023-12-21T08:24:32.734Z,0.63
2023-12-21T08:26:59.753Z,0.80
2023-12-21T08:29:26.220Z,0.40
2023-12-21T08:31:52.677Z,1.07
2023-12-21T08:34:19.371Z,0.83
2023-12-21T08:36:45.817Z,1.40
2023-12-21T08:39:12.386Z,1.00
2023-12-21T08:41:38.730Z,1.87
2023-12-21T08:44:05.187Z,1.10
2023-12-21T08:46:31.570Z,0.70
2023-12-21T08:48:58.424Z,1.83
2023-12-21T08:51:25.006Z,1.10
2023-12-21T08:53:51.474Z,1.10
2023-12-21T08:56:18.070Z,1.27
2023-12-21T08:58:44.543Z,2.03
2023-12-21T09:01:11.678Z,2.00
2023-12-21T09:03:38.268Z,2.03
2023-12-21T09:06:05.221Z,1.97
2023-12-21T09:08:31.718Z,3.20
2023-12-21T09:10:58.141Z,3.00
2023-12-21T09:13:24.608Z,2.57
2023-12-21T09:15:51.167Z,1.63
2023-12-21T09:18:17.699Z,3.23
2023-12-21T09:20:44.199Z,2.20
2023-12-21T09:23:10.561Z,3.10
2023-12-21T09:25:37.055Z,4.33
2023-12-21T09:28:04.364Z,2.90
2023-12-21T09:30:31.772Z,3.07
2023-12-21T09:33:01.802Z,3.57
2023-12-21T09:35:28.467Z,3.73
2023-12-21T09:37:54.929Z,2.33
2023-12-21T09:40:21.553Z,4.03
2023-12-21T09:43:01.140Z,2.63
2023-12-21T09:45:32.369Z,1.37
2023-12-21T09:47:59.964Z,2.63
2023-12-21T09:50:27.796Z,1.47
2023-12-21T09:52:55.170Z,1.87
2023-12-21T09:55:23.450Z,2.13
2023-12-21T09:57:51.453Z,1.47
2023-12-21T10:00:18.320Z,1.73
2023-12-21T10:02:44.745Z,1.47
2023-12-21T10:05:12.477Z,1.17
2023-12-21T10:07:40.723Z,0.87
2023-12-21T10:10:07.773Z,4.73
2023-12-21T10:12:34.474Z,1.37
2023-12-21T10:15:00.957Z,1.63
2023-12-21T10:17:27.402Z,2.90
2023-12-21T10:19:53.833Z,2.37
2023-12-21T10:22:20.532Z,4.27
2023-12-21T10:24:52.020Z,4.20
2023-12-21T10:27:19.795Z,4.73
2023-12-21T10:29:54.279Z,6.13
2023-12-21T10:32:21.610Z,6.67
2023-12-21T10:34:48.747Z,7.53
2023-12-21T10:37:18.471Z,6.73
2023-12-21T10:39:45.304Z,6.80
2023-12-21T10:42:14.688Z,7.10
2023-12-21T10:44:45.609Z,6.90
2023-12-21T10:47:13.431Z,5.90
2023-12-21T10:49:41.522Z,10.03
2023-12-21T10:52:08.569Z,6.40
2023-12-21T10:54:37.237Z,6.37
2023-12-21T10:57:05.546Z,7.90
2023-12-21T10:59:33.500Z,5.33
2023-12-21T11:02:00.820Z,5.80
2023-12-21T11:04:29.023Z,5.30
2023-12-21T11:06:55.930Z,5.60
2023-12-21T11:09:27.899Z,12.27
2023-12-21T11:11:58.543Z,12.53
2023-12-21T11:14:25.598Z,8.53
2023-12-21T11:17:01.349Z,7.70
2023-12-21T11:19:36.896Z,11.60
2023-12-21T11:22:05.241Z,8.73
2023-12-21T11:24:31.864Z,11.20
2023-12-21T11:27:00.394Z,11.83
2023-12-21T11:29:29.623Z,9.97
2023-12-21T11:31:57.148Z,10.47
2023-12-21T11:34:35.764Z,14.60
2023-12-21T11:37:27.811Z,13.77
2023-12-21T11:40:00.850Z,17.40
2023-12-21T11:42:37.521Z,14.33
2023-12-21T11:45:07.782Z,13.03
2023-12-21T11:47:34.448Z,9.23
2023-12-21T11:50:20.711Z,5.83
2023-12-21T11:52:52.420Z,9.13
2023-12-21T11:55:26.487Z,8.10
2023-12-21T11:58:20.632Z,9.73
2023-12-21T12:00:50.590Z,8.67
2023-12-21T12:03:18.919Z,13.43
2023-12-21T12:05:46.183Z,8.27
2023-12-21T12:08:12.866Z,10.20
2023-12-21T12:10:39.610Z,16.97
2023-12-21T12:13:07.109Z,12.30
2023-12-21T12:15:36.017Z,12.37
2023-12-21T12:18:09.055Z,12.80
2023-12-21T12:20:42.426Z,13.00
2023-12-21T12:23:09.146Z,9.57
2023-12-21T12:25:43.025Z,12.40
2023-12-21T12:28:13.714Z,10.77
2023-12-21T12:30:42.453Z,11.20
2023-12-21T12:33:09.899Z,10.07
2023-12-21T12:35:40.200Z,11.97
2023-12-21T12:38:07.919Z,10.90
2023-12-21T12:40:35.718Z,10.77
2023-12-21T12:43:02.810Z,8.50
2023-12-21T12:45:30.743Z,11.83
2023-12-21T12:47:57.480Z,12.87
2023-12-21T12:50:27.667Z,9.10
2023-12-21T12:52:54.195Z,9.20
2023-12-21T12:55:22.109Z,13.73
2023-12-21T12:57:51.496Z,12.93
2023-12-21T13:00:21.306Z,10.33
2023-12-21T13:02:48.443Z,9.77
2023-12-21T13:05:18.218Z,9.60
2023-12-21T13:07:44.794Z,7.87
2023-12-21T13:10:15.403Z,9.90
2023-12-21T13:12:43.705Z,4.77
2023-12-21T13:15:12.525Z,6.80
2023-12-21T13:17:39.065Z,10.33
2023-12-21T13:20:10.795Z,12.63
2023-12-21T13:22:37.980Z,14.73
2023-12-21T13:25:05.151Z,12.80
2023-12-21T13:27:32.895Z,15.30
2023-12-21T13:29:59.293Z,17.90
2023-12-21T13:32:26.159Z,20.20
2023-12-21T13:34:52.777Z,20.00
2023-12-21T13:37:19.386Z,20.27
2023-12-21T13:39:49.754Z,22.83
2023-12-21T13:42:16.958Z,19.10
2023-12-21T13:44:44.046Z,21.10
2023-12-21T13:47:10.756Z,18.70
2023-12-21T13:49:37.303Z,22.70
2023-12-21T13:52:03.990Z,31.23
2023-12-21T13:54:30.392Z,28.00
2023-12-21T13:57:06.874Z,24.63
2023-12-21T13:59:37.815Z,31.17
2023-12-21T14:02:04.522Z,37.43
2023-12-21T14:04:31.233Z,30.10
2023-12-21T14:06:58.405Z,29.10
2023-12-21T14:09:25.575Z,25.53
2023-12-21T14:11:52.175Z,31.23
2023-12-21T14:14:18.611Z,27.87
2023-12-21T14:16:45.074Z,22.37
2023-12-21T14:19:12.435Z,23.03
2023-12-21T14:21:38.947Z,31.77
2023-12-21T14:24:05.829Z,21.83
2023-12-21T14:26:32.219Z,21.23
2023-12-21T14:28:58.620Z,24.63
2023-12-21T14:31:25.292Z,24.67
2023-12-21T14:33:52.181Z,23.43
2023-12-21T14:36:19.447Z,19.43
2023-12-21T14:38:46.010Z,22.23
2023-12-21T14:41:12.659Z,17.67
2023-12-21T14:43:39.725Z,22.63
2023-12-21T14:46:06.448Z,15.87
2023-12-21T14:48:33.086Z,14.90
2023-12-21T14:50:59.492Z,23.43
2023-12-21T14:53:25.936Z,32.10
2023-12-21T14:55:52.693Z,31.07
2023-12-21T14:58:19.319Z,35.07
2023-12-21T15:00:46.063Z,34.73
2023-12-21T15:03:12.814Z,35.90
2023-12-21T15:05:39.369Z,31.13
2023-12-21T15:08:08.645Z,36.27
2023-12-21T15:10:37.215Z,34.27
2023-12-21T15:13:07.482Z,29.97
2023-12-21T15:15:34.262Z,33.10
2023-12-21T15:18:00.837Z,27.33
2023-12-21T15:20:27.345Z,29.87
2023-12-21T15:22:53.855Z,27.17
2023-12-21T15:25:21.094Z,30.03
2023-12-21T15:27:47.911Z,30.10
2023-12-21T15:30:14.801Z,26.70
2023-12-21T15:32:41.285Z,27.00
2023-12-21T15:35:08.313Z,29.93
2023-12-21T15:37:34.835Z,36.63
2023-12-21T15:40:01.378Z,32.57
2023-12-21T15:42:27.709Z,32.47
2023-12-21T15:44:54.137Z,30.53
2023-12-21T15:47:20.518Z,39.33
2023-12-21T15:49:46.981Z,39.47
2023-12-21T15:52:13.532Z,45.77
2023-12-21T15:54:39.986Z,39.60
2023-12-21T15:57:06.437Z,37.00
2023-12-21T15:59:35.922Z,41.77
2023-12-21T16:02:03.870Z,46.07
2023-12-21T16:04:32.126Z,42.90
2023-12-21T16:07:00.441Z,41.30
2023-12-21T16:09:29.844Z,49.67
2023-12-21T16:11:56.261Z,46.40
2023-12-21T16:14:22.657Z,49.90
2023-12-21T16:16:49.221Z,35.90
2023-12-21T16:19:15.860Z,26.77
2023-12-21T16:21:42.509Z,29.70
2023-12-21T16:24:11.059Z,30.90
2023-12-21T16:26:41.129Z,32.57
2023-12-21T16:29:07.906Z,22.03
2023-12-21T16:31:34.683Z,22.50
2023-12-21T16:34:01.198Z,18.27
2023-12-21T16:36:27.779Z,19.07
2023-12-21T16:38:54.242Z,19.03
2023-12-21T16:41:20.668Z,19.80
2023-12-21T16:43:47.283Z,24.83
2023-12-21T16:46:15.016Z,23.67
2023-12-21T16:48:41.626Z,31.13
2023-12-21T16:51:10.390Z,26.07
2023-12-21T16:53:38.336Z,27.53
2023-12-21T16:56:05.050Z,37.67
2023-12-21T16:58:31.589Z,28.10
2023-12-21T17:00:58.087Z,32.90
2023-12-21T17:03:25.373Z,34.07
2023-12-21T17:05:51.912Z,40.70
2023-12-21T17:08:18.456Z,33.23
2023-12-21T17:10:44.888Z,34.50
2023-12-21T17:13:11.525Z,36.10
2023-12-21T17:15:37.992Z,33.73
2023-12-21T17:18:04.947Z,27.10
2023-12-21T17:20:33.997Z,24.53
2023-12-21T17:23:02.420Z,20.33
2023-12-21T17:25:28.981Z,24.07
2023-12-21T17:27:57.438Z,23.87
2023-12-21T17:30:25.941Z,28.10
2023-12-21T17:32:53.057Z,26.53
2023-12-21T17:35:19.650Z,27.47
2023-12-21T17:37:46.413Z,36.43
2023-12-21T17:40:15.969Z,27.07
2023-12-21T17:42:43.368Z,24.63
2023-12-21T17:45:10.847Z,27.23
2023-12-21T17:47:37.866Z,21.83
2023-12-21T17:50:05.362Z,21.03
2023-12-21T17:52:33.391Z,31.57
2023-12-21T17:54:59.875Z,23.93
2023-12-21T17:57:26.302Z,28.70
2023-12-21T17:59:53.733Z,22.67
2023-12-21T18:02:21.150Z,10.97
2023-12-21T18:04:50.149Z,10.60
2023-12-21T18:07:16.685Z,5.27
2023-12-21T18:09:43.171Z,5.30
2023-12-21T18:12:09.818Z,5.77
2023-12-21T18:14:36.296Z,8.20
2023-12-21T18:17:02.729Z,9.53
2023-12-21T18:19:29.250Z,13.30
2023-12-21T18:21:56.023Z,21.47
2023-12-21T18:24:24.305Z,19.23
2023-12-21T18:26:50.712Z,21.33
2023-12-21T18:29:17.324Z,21.83
2023-12-21T18:31:43.713Z,28.37
2023-12-21T18:34:10.594Z,22.63
2023-12-21T18:36:37.244Z,22.27
2023-12-21T18:39:04.985Z,19.73
2023-12-21T18:41:31.436Z,20.73
2023-12-21T18:43:59.518Z,19.07
2023-12-21T18:46:25.967Z,18.60
2023-12-21T18:48:52.952Z,17.43
2023-12-21T18:51:19.393Z,12.70
2023-12-21T18:53:45.737Z,9.20
2023-12-21T18:56:13.260Z,8.20
2023-12-21T18:58:39.670Z,7.07
2023-12-21T19:01:06.069Z,10.43
2023-12-21T19:03:35.349Z,7.30
2023-12-21T19:06:01.879Z,9.93
2023-12-21T19:08:28.346Z,9.97
2023-12-21T19:10:56.761Z,12.60
2023-12-21T19:13:23.417Z,12.07
2023-12-21T19:15:49.837Z,8.27
2023-12-21T19:18:16.714Z,10.33
2023-12-21T19:20:45.654Z,9.63
2023-12-21T19:23:13.279Z,9.20
2023-12-21T19:25:39.724Z,14.47
2023-12-21T19:28:06.251Z,15.10
2023-12-21T19:30:32.685Z,14.67
2023-12-21T19:33:02.458Z,20.90
2023-12-21T19:35:28.879Z,18.53
2023-12-21T19:37:55.355Z,20.47
2023-12-21T19:40:21.746Z,20.63
2023-12-21T19:42:48.113Z,23.83
2023-12-21T19:45:14.671Z,19.77
2023-12-21T19:47:41.128Z,21.37
2023-12-21T19:50:07.992Z,19.40
2023-12-21T19:52:34.560Z,19.47
2023-12-21T19:55:01.102Z,28.87
2023-12-21T19:57:27.519Z,26.07
2023-12-21T19:59:55.523Z,24.87
2023-12-21T20:02:21.909Z,24.87
2023-12-21T20:04:48.442Z,24.93
2023-12-21T20:07:14.983Z,20.97
2023-12-21T20:09:41.360Z,21.43
2023-12-21T20:12:08.141Z,22.87
2023-12-21T20:14:34.574Z,28.43
2023-12-21T20:17:01.034Z,31.47
2023-12-21T20:19:28.113Z,25.47
2023-12-21T20:21:54.798Z,23.50
2023-12-21T20:24:22.572Z,27.33
2023-12-21T20:26:49.007Z,29.50
2023-12-21T20:29:15.570Z,22.27
2023-12-21T20:31:42.032Z,27.53
2023-12-21T20:34:12.999Z,28.20
2023-12-21T20:36:40.141Z,25.00
2023-12-21T20:39:07.637Z,33.47
2023-12-21T20:41:34.418Z,30.90
2023-12-21T20:44:00.855Z,30.97
2023-12-21T20:46:27.299Z,29.67
2023-12-21T20:48:53.716Z,22.47
2023-12-21T20:51:20.122Z,21.87
2023-12-21T20:53:46.533Z,20.50
2023-12-21T20:56:12.977Z,21.10
2023-12-21T20:58:39.394Z,27.07
2023-12-21T21:01:06.108Z,35.10
2023-12-21T21:03:37.710Z,23.67
2023-12-21T21:06:05.573Z,27.23
2023-12-21T21:08:32.039Z,19.40
2023-12-21T21:10:59.117Z,16.30
2023-12-21T21:13:25.597Z,21.93
2023-12-21T21:15:52.089Z,26.60
2023-12-21T21:18:18.581Z,34.47
2023-12-21T21:20:46.216Z,22.97
2023-12-21T21:23:12.655Z,18.63
2023-12-21T21:25:39.123Z,18.83
2023-12-21T21:28:05.673Z,18.97
2023-12-21T21:30:55.760Z,18.20
2023-12-21T21:33:18.559Z,18.80
2023-12-21T21:35:45.063Z,23.23
2023-12-21T21:38:11.503Z,25.33
2023-12-21T21:40:37.994Z,27.90
2023-12-21T21:43:04.475Z,29.50
2023-12-21T21:45:31.330Z,25.77
2023-12-21T21:47:57.866Z,34.00
2023-12-21T21:50:24.246Z,33.10
2023-12-21T21:52:51.048Z,33.23
2023-12-21T21:55:17.490Z,26.87
2023-12-21T21:57:43.958Z,32.63
2023-12-21T22:00:10.985Z,32.87
2023-12-21T22:02:37.467Z,33.57
2023-12-21T22:05:04.233Z,30.07
2023-12-21T22:07:30.796Z,22.23
2023-12-21T22:09:57.233Z,25.60
2023-12-21T22:12:23.624Z,24.00
2023-12-21T22:14:50.135Z,32.30
2023-12-21T22:17:16.637Z,25.33
2023-12-21T22:19:43.108Z,24.63
2023-12-21T22:22:10.035Z,25.13
2023-12-21T22:24:36.436Z,27.97
2023-12-21T22:27:02.887Z,26.03
2023-12-21T22:29:29.289Z,27.33
2023-12-21T22:31:55.682Z,27.17
2023-12-21T22:34:22.146Z,21.30
2023-12-21T22:36:48.609Z,23.53
2023-12-21T22:39:14.980Z,28.53
2023-12-21T22:41:41.408Z,26.53
2023-12-21T22:44:07.828Z,23.10
2023-12-21T22:46:34.354Z,26.50
2023-12-21T22:49:00.890Z,25.13
2023-12-21T22:51:27.355Z,29.47
2023-12-21T22:53:53.724Z,30.00
2023-12-21T22:56:20.286Z,24.00
2023-12-21T22:58:47.051Z,26.97
2023-12-21T23:01:19.201Z,23.43
2023-12-21T23:03:46.092Z,26.73
2023-12-21T23:06:12.541Z,22.67
2023-12-21T23:08:39.665Z,24.17
2023-12-21T23:11:06.189Z,30.13
2023-12-21T23:13:32.627Z,25.90
2023-12-21T23:16:01.065Z,20.80
2023-12-21T23:18:27.539Z,23.20
2023-12-21T23:20:54.047Z,24.07
2023-12-21T23:23:20.465Z,22.23
2023-12-21T23:25:46.977Z,31.57
2023-12-21T23:28:13.451Z,28.33
2023-12-21T23:30:39.950Z,26.40
2023-12-21T23:33:06.458Z,24.70
2023-12-21T23:35:32.930Z,23.77
2023-12-21T23:37:59.472Z,25.83
2023-12-21T23:40:26.611Z,30.03
2023-12-21T23:42:53.172Z,28.40
2023-12-21T23:45:19.855Z,31.57
2023-12-21T23:47:46.455Z,29.63
2023-12-21T23:50:13.090Z,29.50
2023-12-21T23:52:39.809Z,25.60
2023-12-21T23:55:06.822Z,26.97
2023-12-21T23:57:33.210Z,23.37
2023-12-21T23:59:59.614Z,27.40
